createdAt,value
2019-02-15T00:00:52.715Z,2.60
2019-02-15T00:03:21.770Z,2.60
2019-02-15T00:05:50.596Z,2.60
2019-02-15T00:08:19.591Z,2.60
2019-02-15T00:10:48.886Z,2.60
2019-02-15T00:13:17.878Z,2.60
2019-02-15T00:15:47.067Z,2.60
2019-02-15T00:18:33.112Z,2.60
2019-02-15T00:21:28.457Z,2.60
2019-02-15T00:23:57.917Z,2.70
2019-02-15T00:30:44.139Z,2.80
2019-02-15T00:33:13.111Z,2.90
2019-02-15T00:35:42.201Z,2.90
2019-02-15T00:38:13.229Z,3.00
2019-02-15T00:40:42.181Z,3.00
2019-02-15T00:43:11.255Z,3.10
2019-02-15T00:45:49.228Z,3.20
2019-02-15T00:48:21.923Z,3.30
2019-02-15T00:51:09.825Z,3.40
2019-02-15T00:53:54.835Z,3.40
2019-02-15T00:56:37.979Z,3.40
2019-02-15T00:59:27.066Z,3.40
2019-02-15T01:02:03.716Z,3.40
2019-02-15T01:04:55.025Z,3.40
2019-02-15T01:07:55.712Z,3.40
2019-02-15T01:10:59.319Z,3.40
2019-02-15T01:13:31.223Z,3.40
2019-02-15T01:15:59.440Z,3.40
2019-02-15T01:18:28.715Z,3.40
2019-02-15T01:20:57.661Z,3.40
2019-02-15T01:23:27.278Z,3.40
2019-02-15T01:26:14.441Z,3.40
2019-02-15T01:29:05.574Z,3.40
2019-02-15T01:31:49.332Z,3.40
2019-02-15T01:34:41.923Z,3.40
2019-02-15T01:37:33.219Z,3.40
2019-02-15T01:40:11.436Z,3.40
2019-02-15T01:43:11.664Z,3.40
2019-02-15T01:45:49.950Z,3.40
2019-02-15T01:48:18.859Z,3.40
2019-02-15T01:50:48.305Z,3.40
2019-02-15T01:53:18.601Z,3.40
2019-02-15T01:55:49.233Z,3.40
2019-02-15T01:58:22.177Z,3.40
2019-02-15T02:00:54.319Z,3.40
2019-02-15T02:03:23.222Z,3.40
2019-02-15T02:05:58.478Z,3.40
2019-02-15T02:08:28.384Z,3.40
2019-02-15T02:10:57.404Z,3.40
2019-02-15T02:13:27.236Z,3.50
2019-02-15T02:15:56.463Z,3.50
2019-02-15T02:18:25.401Z,3.50
2019-02-15T02:20:55.027Z,3.50
2019-02-15T02:23:24.004Z,3.50
2019-02-15T02:25:53.645Z,3.50
2019-02-15T02:28:22.606Z,3.50
2019-02-15T02:30:52.035Z,3.50
2019-02-15T02:33:22.663Z,3.40
2019-02-15T02:35:51.763Z,3.40
2019-02-15T02:38:20.853Z,3.40
2019-02-15T02:40:49.793Z,3.40
2019-02-15T02:43:19.091Z,3.40
2019-02-15T02:45:48.083Z,3.40
2019-02-15T02:48:17.250Z,3.40
2019-02-15T02:50:46.122Z,3.40
2019-02-15T02:53:15.885Z,3.30
2019-02-15T02:55:45.143Z,3.30
2019-02-15T02:58:14.037Z,3.40
2019-02-15T03:00:43.010Z,3.30
2019-02-15T03:03:11.912Z,3.30
2019-02-15T03:05:40.901Z,3.30
2019-02-15T03:08:09.805Z,3.30
2019-02-15T03:10:39.040Z,3.30
2019-02-15T03:13:07.949Z,3.30
2019-02-15T03:15:37.095Z,3.30
2019-02-15T03:18:06.810Z,3.30
2019-02-15T03:20:35.707Z,3.20
2019-02-15T03:23:05.828Z,3.20
2019-02-15T03:25:34.982Z,3.20
2019-02-15T03:28:04.750Z,3.20
2019-02-15T03:30:34.091Z,3.20
2019-02-15T03:33:04.388Z,3.20
2019-02-15T03:35:33.401Z,3.20
2019-02-15T03:38:10.738Z,3.20
2019-02-15T03:40:44.980Z,3.10
2019-02-15T03:43:19.799Z,3.10
2019-02-15T03:45:49.301Z,3.10
2019-02-15T03:48:18.681Z,3.10
2019-02-15T03:50:47.581Z,3.10
2019-02-15T03:53:20.041Z,3.10
2019-02-15T03:55:49.258Z,3.10
2019-02-15T03:58:19.005Z,3.00
2019-02-15T04:00:54.406Z,3.00
2019-02-15T04:03:23.568Z,3.00
2019-02-15T04:05:52.822Z,3.00
2019-02-15T04:08:22.101Z,3.00
2019-02-15T04:10:51.107Z,3.00
2019-02-15T04:13:20.016Z,3.00
2019-02-15T04:15:49.016Z,3.00
2019-02-15T04:18:17.821Z,3.00
2019-02-15T04:20:46.804Z,3.00
2019-02-15T04:23:16.346Z,2.90
2019-02-15T04:25:45.262Z,2.90
2019-02-15T04:28:14.452Z,2.90
2019-02-15T04:30:43.373Z,2.90
2019-02-15T04:33:12.362Z,2.80
2019-02-15T04:35:41.170Z,2.80
2019-02-15T04:38:10.081Z,2.80
2019-02-15T04:40:38.903Z,2.80
2019-02-15T04:43:07.817Z,2.80
2019-02-15T04:45:36.819Z,2.80
2019-02-15T04:48:06.521Z,2.80
2019-02-15T04:50:36.143Z,2.70
2019-02-15T04:53:05.050Z,2.70
2019-02-15T04:55:33.949Z,2.70
2019-02-15T04:58:02.858Z,2.70
2019-02-15T05:00:32.670Z,2.70
2019-02-15T05:03:01.964Z,2.70
2019-02-15T05:05:31.065Z,2.70
2019-02-15T05:08:00.053Z,2.60
2019-02-15T05:10:28.851Z,2.60
2019-02-15T05:12:58.042Z,2.60
2019-02-15T05:15:27.052Z,2.60
2019-02-15T05:17:55.932Z,2.60
2019-02-15T05:20:55.450Z,2.60
2019-02-15T05:23:30.923Z,2.50
2019-02-15T05:26:00.692Z,2.50
2019-02-15T05:28:29.950Z,2.50
2019-02-15T05:30:58.912Z,2.50
2019-02-15T05:33:27.797Z,2.50
2019-02-15T05:35:57.282Z,2.40
2019-02-15T05:38:26.196Z,2.40
2019-02-15T05:42:02.593Z,2.40
2019-02-15T05:44:32.991Z,2.30
2019-02-15T05:47:01.947Z,2.30
2019-02-15T05:49:30.802Z,2.30
2019-02-15T05:51:59.870Z,2.30
2019-02-15T05:54:29.625Z,2.30
2019-02-15T05:57:01.108Z,2.30
2019-02-15T05:59:31.151Z,2.20
2019-02-15T06:02:00.097Z,2.20
2019-02-15T06:04:29.519Z,2.20
2019-02-15T06:07:03.207Z,2.20
2019-02-15T06:09:33.044Z,2.20
2019-02-15T06:12:02.400Z,2.10
2019-02-15T06:14:31.674Z,2.20
2019-02-15T06:17:01.962Z,2.10
2019-02-15T06:19:31.334Z,2.10
2019-02-15T06:22:00.256Z,2.10
2019-02-15T06:24:29.485Z,2.10
2019-02-15T06:26:58.466Z,2.10
2019-02-15T06:29:27.444Z,2.10
2019-02-15T06:31:56.614Z,2.10
2019-02-15T06:34:25.521Z,2.10
2019-02-15T06:36:54.867Z,2.10
2019-02-15T06:39:27.140Z,2.10
2019-02-15T06:41:56.096Z,2.10
2019-02-15T06:44:28.607Z,2.10
2019-02-15T06:46:57.518Z,2.00
2019-02-15T06:49:26.627Z,2.00
2019-02-15T06:51:55.549Z,2.00
2019-02-15T06:54:24.469Z,2.00
2019-02-15T06:58:03.999Z,2.00
2019-02-15T07:00:52.681Z,2.00
2019-02-15T07:03:40.765Z,2.00
2019-02-15T07:06:10.406Z,2.00
2019-02-15T07:08:44.612Z,2.00
2019-02-15T07:11:14.137Z,2.00
2019-02-15T07:13:44.421Z,1.90
2019-02-15T07:16:13.442Z,1.90
2019-02-15T07:18:42.383Z,1.90
2019-02-15T07:21:11.649Z,2.00
2019-02-15T07:23:41.316Z,2.00
2019-02-15T07:26:10.426Z,2.00
2019-02-15T07:28:47.659Z,2.00
2019-02-15T07:31:16.929Z,2.10
2019-02-15T07:33:45.779Z,2.10
2019-02-15T07:36:19.850Z,2.20
2019-02-15T07:38:48.675Z,2.20
2019-02-15T07:41:17.947Z,2.20
2019-02-15T07:43:47.071Z,2.30
2019-02-15T07:46:16.213Z,2.30
2019-02-15T07:48:47.495Z,2.30
2019-02-15T07:51:16.491Z,2.40
2019-02-15T07:53:45.612Z,2.40
2019-02-15T07:56:14.614Z,2.50
2019-02-15T07:58:43.434Z,2.50
2019-02-15T08:01:12.608Z,2.60
2019-02-15T08:03:43.094Z,2.60
2019-02-15T08:06:15.081Z,2.70
2019-02-15T08:08:44.288Z,2.70
2019-02-15T08:11:13.542Z,2.80
2019-02-15T08:13:44.150Z,2.90
2019-02-15T08:16:13.804Z,2.90
2019-02-15T08:18:42.690Z,3.00
2019-02-15T08:21:15.524Z,3.00
2019-02-15T08:23:44.612Z,3.10
2019-02-15T08:26:13.544Z,3.20
2019-02-15T08:28:44.090Z,3.20
2019-02-15T08:31:12.938Z,3.30
2019-02-15T08:33:42.160Z,3.30
2019-02-15T08:36:11.114Z,3.40
2019-02-15T08:38:40.035Z,3.50
2019-02-15T08:41:09.054Z,3.50
2019-02-15T08:43:38.888Z,3.60
2019-02-15T08:46:07.919Z,3.70
2019-02-15T08:48:45.706Z,3.80
2019-02-15T09:02:03.215Z,4.10
2019-02-15T09:04:32.471Z,4.20
2019-02-15T09:07:01.321Z,4.30
2019-02-15T09:09:30.522Z,4.40
2019-02-15T09:11:59.456Z,4.50
2019-02-15T09:14:28.430Z,4.60
2019-02-15T09:17:00.884Z,4.60
2019-02-15T09:19:31.576Z,4.70
2019-02-15T09:22:00.541Z,4.80
2019-02-15T09:24:30.492Z,4.80
2019-02-15T09:27:03.980Z,4.90
2019-02-15T09:29:33.144Z,5.00
2019-02-15T09:32:02.241Z,5.10
2019-02-15T09:34:33.103Z,5.20
2019-02-15T09:37:03.998Z,5.30
2019-02-15T09:39:35.210Z,5.30
2019-02-15T09:42:04.669Z,5.40
2019-02-15T09:44:33.528Z,5.50
2019-02-15T09:47:03.870Z,5.60
2019-02-15T09:49:32.812Z,5.70
2019-02-15T09:52:01.684Z,5.70
2019-02-15T09:54:30.993Z,5.80
2019-02-15T09:56:59.995Z,5.90
2019-02-15T09:59:29.816Z,6.00
2019-02-15T10:01:58.749Z,6.00
2019-02-15T10:04:27.626Z,6.10
2019-02-15T10:06:59.726Z,6.20
2019-02-15T10:09:28.919Z,6.20
2019-02-15T10:11:57.864Z,6.30
2019-02-15T10:14:30.356Z,6.40
2019-02-15T10:16:59.258Z,6.50
2019-02-15T10:19:29.057Z,6.60
2019-02-15T10:22:01.264Z,6.70
2019-02-15T10:24:30.126Z,6.80
2019-02-15T10:27:00.566Z,6.90
2019-02-15T10:29:29.554Z,7.00
2019-02-15T10:34:34.085Z,7.20
2019-02-15T10:37:02.952Z,7.30
2019-02-15T10:39:31.922Z,7.40
2019-02-15T10:42:00.746Z,7.40
2019-02-15T10:44:30.197Z,7.50
2019-02-15T10:46:59.046Z,7.60
2019-02-15T10:49:28.465Z,7.70
2019-02-15T10:52:00.769Z,7.80
2019-02-15T10:54:29.950Z,7.90
2019-02-15T10:57:05.277Z,8.00
2019-02-15T10:59:35.752Z,8.00
2019-02-15T11:02:04.895Z,8.10
2019-02-15T11:04:34.110Z,8.20
2019-02-15T11:07:06.886Z,8.30
2019-02-15T11:09:35.862Z,8.40
2019-02-15T11:12:04.776Z,8.50
2019-02-15T11:14:33.961Z,8.60
2019-02-15T11:17:03.301Z,8.60
2019-02-15T11:19:32.144Z,8.80
2019-02-15T11:22:02.372Z,8.80
2019-02-15T11:24:31.652Z,9.00
2019-02-15T11:27:01.028Z,9.00
2019-02-15T11:29:30.133Z,9.20
2019-02-15T11:31:59.879Z,9.30
2019-02-15T11:34:28.807Z,9.40
2019-02-15T11:36:59.852Z,9.50
2019-02-15T11:39:28.727Z,9.60
2019-02-15T11:41:57.613Z,9.70
2019-02-15T11:44:27.300Z,9.80
2019-02-15T11:46:56.959Z,9.90
2019-02-15T11:49:27.627Z,10.00
2019-02-15T11:52:03.033Z,10.10
2019-02-15T11:54:32.216Z,10.20
2019-02-15T11:57:01.139Z,10.30
2019-02-15T11:59:32.554Z,10.40
2019-02-15T12:02:06.610Z,10.50
2019-02-15T12:04:35.666Z,10.60
2019-02-15T12:07:05.131Z,10.70
2019-02-15T12:09:37.054Z,10.80
2019-02-15T12:12:10.821Z,10.90
2019-02-15T12:14:37.139Z,11.00
2019-02-15T12:17:06.447Z,11.10
2019-02-15T12:22:10.801Z,11.20
2019-02-15T12:24:40.697Z,11.30
2019-02-15T12:27:09.838Z,11.40
2019-02-15T12:29:41.590Z,11.50
2019-02-15T12:32:15.601Z,11.60
2019-02-15T12:34:45.636Z,11.70
2019-02-15T12:37:16.323Z,11.80
2019-02-15T12:39:47.313Z,11.80
2019-02-15T12:42:16.251Z,11.80
2019-02-15T12:44:45.112Z,11.90
2019-02-15T12:47:15.290Z,11.90
2019-02-15T12:49:44.734Z,12.10
2019-02-15T12:52:13.938Z,12.10
2019-02-15T12:57:19.609Z,12.20
2019-02-15T12:59:48.644Z,12.30
2019-02-15T13:02:18.301Z,12.30
2019-02-15T13:04:47.125Z,12.40
2019-02-15T13:07:16.094Z,12.40
2019-02-15T13:09:52.018Z,12.50
2019-02-15T13:12:21.775Z,12.50
2019-02-15T13:14:51.544Z,12.60
2019-02-15T13:17:24.840Z,12.60
2019-02-15T13:19:51.659Z,12.60
2019-02-15T13:22:20.746Z,12.70
2019-02-15T13:24:49.675Z,12.80
2019-02-15T13:27:19.137Z,12.80
2019-02-15T13:29:48.131Z,12.90
2019-02-15T13:32:17.677Z,12.90
2019-02-15T13:34:47.363Z,13.00
2019-02-15T13:37:17.136Z,13.00
2019-02-15T13:39:46.794Z,13.00
2019-02-15T13:42:16.616Z,13.00
2019-02-15T13:47:21.876Z,13.10
2019-02-15T13:49:51.478Z,13.20
2019-02-15T13:52:21.731Z,13.20
2019-02-15T13:54:54.410Z,13.20
2019-02-15T13:57:23.891Z,13.30
2019-02-15T13:59:53.096Z,13.30
2019-02-15T14:02:22.279Z,13.30
2019-02-15T14:04:51.566Z,13.40
2019-02-15T14:07:21.228Z,13.40
2019-02-15T14:12:26.371Z,13.50
2019-02-15T14:14:58.730Z,13.50
2019-02-15T14:17:29.046Z,13.50
2019-02-15T14:20:00.582Z,13.50
2019-02-15T14:22:29.571Z,13.60
2019-02-15T14:24:59.124Z,13.60
2019-02-15T14:30:03.017Z,13.60
2019-02-15T14:32:32.255Z,13.70
2019-02-15T14:35:01.064Z,13.60
2019-02-15T14:37:33.266Z,13.60
2019-02-15T14:40:02.896Z,13.70
2019-02-15T14:42:32.617Z,13.70
2019-02-15T14:45:01.765Z,13.70
2019-02-15T14:47:30.853Z,13.70
2019-02-15T14:50:00.121Z,13.70
2019-02-15T14:55:52.230Z,13.80
2019-02-15T14:58:21.787Z,13.80
2019-02-15T15:00:50.928Z,13.70
2019-02-15T15:03:20.745Z,13.80
2019-02-15T15:05:49.743Z,13.80
2019-02-15T15:08:18.598Z,13.80
2019-02-15T15:10:49.996Z,13.80
2019-02-15T15:13:18.975Z,13.90
2019-02-15T15:15:48.536Z,13.80
2019-02-15T15:18:18.086Z,13.90
2019-02-15T15:20:47.333Z,13.90
2019-02-15T15:23:16.861Z,13.90
2019-02-15T15:25:47.778Z,14.00
2019-02-15T15:28:16.879Z,14.00
2019-02-15T15:30:46.331Z,13.90
2019-02-15T15:33:15.863Z,13.90
2019-02-15T15:35:46.791Z,13.90
2019-02-15T15:38:16.542Z,13.80
2019-02-15T15:40:45.656Z,13.80
2019-02-15T15:43:14.673Z,13.70
2019-02-15T15:45:43.719Z,13.60
2019-02-15T15:48:22.183Z,13.50
2019-02-15T15:50:43.974Z,13.40
2019-02-15T15:53:14.919Z,13.20
2019-02-15T15:55:46.950Z,13.10
2019-02-15T15:58:17.179Z,13.10
2019-02-15T16:00:46.649Z,13.00
2019-02-15T16:03:15.626Z,12.90
2019-02-15T16:05:46.282Z,12.80
2019-02-15T16:08:15.775Z,12.70
2019-02-15T16:10:45.399Z,12.60
2019-02-15T16:13:17.684Z,12.50
2019-02-15T16:15:47.289Z,12.40
2019-02-15T16:18:17.568Z,12.30
2019-02-15T16:20:47.038Z,12.20
2019-02-15T16:23:16.019Z,12.20
2019-02-15T16:25:45.495Z,12.10
2019-02-15T16:28:14.742Z,12.00
2019-02-15T16:30:43.882Z,11.90
2019-02-15T16:33:13.177Z,11.80
2019-02-15T16:35:42.468Z,11.70
2019-02-15T16:38:11.365Z,11.60
2019-02-15T16:40:43.774Z,11.50
2019-02-15T16:43:13.025Z,11.30
2019-02-15T16:45:45.085Z,11.20
2019-02-15T16:48:14.090Z,11.10
2019-02-15T16:50:43.658Z,10.90
2019-02-15T16:53:12.608Z,10.80
2019-02-15T16:55:45.172Z,10.70
2019-02-15T16:58:14.090Z,10.50
2019-02-15T17:00:43.044Z,10.40
2019-02-15T17:03:15.029Z,10.20
2019-02-15T17:05:43.936Z,10.10
2019-02-15T17:08:12.828Z,10.00
2019-02-15T17:10:44.793Z,9.90
2019-02-15T17:13:13.839Z,9.70
2019-02-15T17:15:43.146Z,9.60
2019-02-15T17:18:12.098Z,9.50
2019-02-15T17:20:42.518Z,9.40
2019-02-15T17:23:11.804Z,9.30
2019-02-15T17:25:42.657Z,9.20
2019-02-15T17:28:11.861Z,9.20
2019-02-15T17:30:41.142Z,9.10
2019-02-15T17:33:10.430Z,9.10
2019-02-15T17:35:39.734Z,9.10
2019-02-15T17:38:09.079Z,9.10
2019-02-15T17:40:38.083Z,9.10
2019-02-15T17:43:07.047Z,9.10
2019-02-15T17:45:35.987Z,9.10
2019-02-15T17:48:05.246Z,9.10
2019-02-15T17:50:34.626Z,9.10
2019-02-15T17:53:03.665Z,9.10
2019-02-15T17:55:33.075Z,9.10
2019-02-15T17:58:02.188Z,9.10
2019-02-15T18:00:32.021Z,9.00
2019-02-15T18:03:01.396Z,9.00
2019-02-15T18:05:33.546Z,8.90
2019-02-15T18:08:02.702Z,8.80
2019-02-15T18:10:32.053Z,8.90
2019-02-15T18:13:04.326Z,8.80
2019-02-15T18:15:33.270Z,8.70
2019-02-15T18:18:02.202Z,8.80
2019-02-15T18:20:31.111Z,8.80
2019-02-15T18:23:00.120Z,8.70
2019-02-15T18:25:29.392Z,8.70
2019-02-15T18:28:01.815Z,8.60
2019-02-15T18:30:30.744Z,8.60
2019-02-15T18:33:00.015Z,8.60
2019-02-15T18:35:29.001Z,8.60
2019-02-15T18:37:58.744Z,8.60
2019-02-15T18:40:27.995Z,8.50
2019-02-15T18:42:56.987Z,8.50
2019-02-15T18:45:25.913Z,8.50
2019-02-15T18:47:56.274Z,8.40
2019-02-15T18:50:25.238Z,8.40
2019-02-15T18:53:51.230Z,8.30
2019-02-15T18:58:54.467Z,8.20
2019-02-15T19:01:24.223Z,8.20
2019-02-15T19:03:53.164Z,8.10
2019-02-15T19:06:26.531Z,8.10
2019-02-15T19:08:56.257Z,8.00
2019-02-15T19:11:25.318Z,8.00
2019-02-15T19:13:54.255Z,7.90
2019-02-15T19:16:23.534Z,7.90
2019-02-15T19:18:52.844Z,7.90
2019-02-15T19:21:21.974Z,7.80
2019-02-15T19:23:51.280Z,7.80
2019-02-15T19:26:20.316Z,7.70
2019-02-15T19:28:51.520Z,7.70
2019-02-15T19:31:20.957Z,7.70
2019-02-15T19:33:50.800Z,7.60
2019-02-15T19:36:20.012Z,7.50
2019-02-15T19:38:49.074Z,7.50
2019-02-15T19:41:18.424Z,7.50
2019-02-15T19:43:48.035Z,7.50
2019-02-15T19:46:17.540Z,7.40
2019-02-15T19:48:46.593Z,7.40
2019-02-15T19:51:16.175Z,7.30
2019-02-15T19:53:46.208Z,7.20
2019-02-15T19:56:16.069Z,7.10
2019-02-15T19:58:49.122Z,7.10
2019-02-15T20:01:18.654Z,7.00
2019-02-15T20:03:49.361Z,7.00
2019-02-15T20:06:18.600Z,7.00
2019-02-15T20:08:48.610Z,6.90
2019-02-15T20:11:17.707Z,6.80
2019-02-15T20:13:49.583Z,6.80
2019-02-15T20:16:18.630Z,6.80
2019-02-15T20:18:48.331Z,6.70
2019-02-15T20:21:17.968Z,6.70
2019-02-15T20:23:47.223Z,6.60
2019-02-15T20:26:16.239Z,6.60
2019-02-15T20:28:48.578Z,6.60
2019-02-15T20:31:22.868Z,6.50
2019-02-15T20:33:52.561Z,6.50
2019-02-15T20:36:24.673Z,6.50
2019-02-15T20:38:53.691Z,6.40
2019-02-15T20:41:26.560Z,6.40
2019-02-15T20:43:55.622Z,6.40
2019-02-15T20:46:24.864Z,6.30
2019-02-15T20:49:04.199Z,6.30
2019-02-15T20:51:25.587Z,6.20
2019-02-15T20:53:54.508Z,6.20
2019-02-15T20:56:23.415Z,6.10
2019-02-15T20:58:54.072Z,6.00
2019-02-15T21:01:26.139Z,6.00
2019-02-15T21:03:54.973Z,6.00
2019-02-15T21:06:24.285Z,5.90
2019-02-15T21:08:53.992Z,5.90
2019-02-15T21:11:26.241Z,5.80
2019-02-15T21:13:55.328Z,5.80
2019-02-15T21:16:27.504Z,5.80
2019-02-15T21:18:56.894Z,5.90
2019-02-15T21:21:26.544Z,5.90
2019-02-15T21:23:55.961Z,5.90
2019-02-15T21:26:25.100Z,6.00
2019-02-15T21:28:54.943Z,6.00
2019-02-15T21:31:24.925Z,6.10
2019-02-15T21:33:54.194Z,6.10
2019-02-15T21:36:28.346Z,6.00
2019-02-15T21:38:58.018Z,6.00
2019-02-15T21:41:31.338Z,6.10
2019-02-15T21:44:01.078Z,6.00
2019-02-15T21:46:30.002Z,6.00
2019-02-15T21:49:01.155Z,6.00
2019-02-15T21:51:31.050Z,6.00
2019-02-15T21:54:03.170Z,6.00
2019-02-15T21:56:35.321Z,5.90
2019-02-15T21:59:09.675Z,5.90
2019-02-15T22:01:38.995Z,5.90
2019-02-15T22:04:11.754Z,5.90
2019-02-15T22:06:40.782Z,5.80
2019-02-15T22:09:10.029Z,5.80
2019-02-15T22:11:38.943Z,5.70
2019-02-15T22:16:44.185Z,5.70
2019-02-15T22:19:13.187Z,5.80
2019-02-15T22:21:43.511Z,5.70
2019-02-15T22:24:12.363Z,5.70
2019-02-15T22:26:41.287Z,5.70
2019-02-15T22:29:11.927Z,5.70
2019-02-15T22:31:40.857Z,5.70
2019-02-15T22:34:10.041Z,5.80
2019-02-15T22:36:39.353Z,5.70
2019-02-15T22:39:09.095Z,5.70
2019-02-15T22:41:39.825Z,5.80
2019-02-15T22:44:08.802Z,5.70
2019-02-15T22:46:37.648Z,5.70
2019-02-15T22:49:06.917Z,5.70
2019-02-15T22:51:36.097Z,5.60
2019-02-15T22:54:05.004Z,5.50
2019-02-15T22:56:34.426Z,5.50
2019-02-15T22:59:03.344Z,5.50
2019-02-15T23:01:32.290Z,5.50
2019-02-15T23:04:07.861Z,5.50
2019-02-15T23:06:36.740Z,5.50
2019-02-15T23:09:11.725Z,5.50
2019-02-15T23:11:40.731Z,5.60
2019-02-15T23:14:09.750Z,5.60
2019-02-15T23:16:38.716Z,5.60
2019-02-15T23:19:07.623Z,5.60
2019-02-15T23:21:37.082Z,5.50
2019-02-15T23:24:06.053Z,5.50
2019-02-15T23:26:35.305Z,5.50
2019-02-15T23:31:39.112Z,5.40
2019-02-15T23:34:07.961Z,5.40
2019-02-15T23:36:36.979Z,5.40
2019-02-15T23:39:06.352Z,5.30
2019-02-15T23:41:35.301Z,5.30
2019-02-15T23:44:05.069Z,5.20
2019-02-15T23:46:34.124Z,5.20
2019-02-15T23:49:03.807Z,5.10
2019-02-15T23:51:32.746Z,5.10
2019-02-15T23:54:01.695Z,5.00
2019-02-15T23:56:30.655Z,5.00
2019-02-15T23:58:59.819Z,4.90
